createdAt,value
2023-03-26T00:01:51.365Z,79.11
2023-03-26T00:06:56.250Z,79.15
2023-03-26T00:12:00.100Z,79.25
2023-03-26T00:17:04.689Z,79.21
2023-03-26T00:22:11.507Z,79.30
2023-03-26T00:27:15.349Z,79.33
2023-03-26T00:32:19.109Z,79.29
2023-03-26T00:37:27.095Z,79.25
2023-03-26T00:42:32.380Z,79.24
2023-03-26T00:47:36.748Z,79.03
2023-03-26T00:52:40.707Z,78.99
2023-03-26T00:57:46.451Z,78.89
2023-03-26T01:02:50.735Z,78.97
2023-03-26T01:07:54.655Z,79.19
2023-03-26T01:12:58.886Z,79.28
2023-03-26T01:18:10.287Z,79.31
2023-03-26T01:23:24.221Z,79.39
2023-03-26T01:28:33.591Z,79.47
2023-03-26T01:34:06.725Z,79.66
2023-03-26T01:39:40.902Z,79.99
2023-03-26T01:45:03.925Z,79.99
2023-03-26T01:50:09.269Z,80.00
2023-03-26T01:55:14.772Z,80.01
2023-03-26T02:00:36.348Z,80.03
2023-03-26T02:05:56.870Z,80.08
2023-03-26T02:11:11.938Z,80.24
2023-03-26T02:16:18.109Z,80.28
2023-03-26T02:21:26.448Z,80.18
2023-03-26T02:26:34.240Z,80.10
2023-03-26T02:31:38.151Z,80.18
2023-03-26T02:36:43.516Z,80.34
2023-03-26T02:41:47.201Z,80.32
2023-03-26T02:46:51.067Z,80.47
2023-03-26T02:51:56.737Z,80.76
2023-03-26T02:57:01.097Z,81.22
2023-03-26T03:02:06.586Z,81.93
2023-03-26T03:07:14.827Z,82.86
2023-03-26T03:12:18.401Z,83.08
2023-03-26T03:17:22.232Z,83.32
2023-03-26T03:22:26.288Z,83.67
2023-03-26T03:27:30.278Z,84.06
2023-03-26T03:32:34.685Z,83.94
2023-03-26T03:37:38.512Z,83.82
2023-03-26T03:42:42.274Z,83.82
2023-03-26T03:47:46.252Z,83.69
2023-03-26T03:52:51.146Z,83.82
2023-03-26T03:57:56.604Z,83.89
2023-03-26T04:03:06.572Z,83.85
2023-03-26T04:08:10.575Z,84.08
2023-03-26T04:13:16.046Z,84.22
2023-03-26T04:18:20.792Z,84.45
2023-03-26T04:23:24.951Z,84.39
2023-03-26T04:29:03.142Z,84.35
2023-03-26T04:34:14.575Z,84.21
2023-03-26T04:39:18.510Z,84.27
2023-03-26T04:44:25.241Z,84.23
2023-03-26T04:49:29.016Z,84.30
2023-03-26T04:54:32.681Z,84.15
2023-03-26T04:59:37.425Z,84.00
2023-03-26T05:04:41.252Z,83.88
2023-03-26T05:09:45.038Z,83.80
2023-03-26T05:14:48.581Z,83.91
2023-03-26T05:19:52.910Z,83.83
2023-03-26T05:24:56.791Z,83.79
2023-03-26T05:30:06.566Z,83.73
2023-03-26T05:35:11.198Z,83.77
2023-03-26T05:40:17.568Z,83.76
2023-03-26T05:45:22.770Z,83.78
2023-03-26T05:50:26.568Z,83.50
2023-03-26T05:55:30.292Z,83.14
2023-03-26T06:00:34.144Z,82.81
2023-03-26T06:05:39.677Z,82.58
2023-03-26T06:10:44.336Z,82.40
2023-03-26T06:15:48.542Z,82.22
2023-03-26T06:20:54.549Z,81.96
2023-03-26T06:26:00.333Z,81.64
2023-03-26T06:31:04.267Z,81.07
2023-03-26T06:36:08.513Z,80.57
2023-03-26T06:41:12.882Z,80.19
2023-03-26T06:46:17.103Z,80.00
2023-03-26T06:51:21.804Z,79.64
2023-03-26T06:56:25.929Z,79.60
2023-03-26T07:01:30.160Z,79.35
2023-03-26T07:06:35.081Z,79.39
2023-03-26T07:11:39.045Z,79.29
2023-03-26T07:16:43.131Z,78.96
2023-03-26T07:21:48.983Z,79.03
2023-03-26T07:27:21.602Z,79.10
2023-03-26T07:32:59.461Z,78.90
2023-03-26T07:38:38.337Z,78.88
2023-03-26T07:44:12.158Z,78.40
2023-03-26T07:49:18.385Z,78.43
2023-03-26T07:54:25.357Z,77.50
2023-03-26T08:00:18.101Z,76.79
2023-03-26T08:05:35.270Z,76.25
2023-03-26T08:11:11.885Z,75.74
2023-03-26T08:16:37.026Z,75.53
2023-03-26T08:22:02.827Z,75.10
2023-03-26T08:27:38.564Z,74.33
2023-03-26T08:32:49.712Z,73.64
2023-03-26T08:37:54.424Z,74.11
2023-03-26T08:43:30.578Z,74.01
2023-03-26T08:49:02.315Z,74.38
2023-03-26T08:54:14.572Z,74.50
2023-03-26T09:00:22.608Z,74.49
2023-03-26T09:06:17.408Z,73.57
2023-03-26T09:11:46.204Z,72.26
2023-03-26T09:17:01.157Z,72.14
2023-03-26T09:22:41.998Z,72.89
2023-03-26T09:28:16.690Z,74.36
2023-03-26T09:34:30.528Z,75.54
2023-03-26T09:39:47.434Z,75.61
2023-03-26T09:45:32.898Z,76.04
2023-03-26T09:51:17.739Z,76.13
2023-03-26T09:56:45.764Z,75.33
2023-03-26T10:02:08.432Z,73.67
2023-03-26T10:07:53.923Z,71.70
2023-03-26T10:13:15.012Z,70.65
2023-03-26T10:18:54.276Z,71.20
2023-03-26T10:24:21.552Z,70.56
2023-03-26T10:30:10.651Z,70.11
2023-03-26T10:35:58.634Z,68.05
2023-03-26T10:41:25.315Z,67.06
2023-03-26T10:47:02.530Z,68.19
2023-03-26T10:52:41.661Z,69.20
2023-03-26T10:57:58.298Z,68.02
2023-03-26T11:03:29.760Z,67.20
2023-03-26T11:08:44.278Z,66.57
2023-03-26T11:14:09.532Z,67.75
2023-03-26T11:20:17.935Z,67.70
2023-03-26T11:25:39.352Z,66.38
2023-03-26T11:31:16.947Z,64.11
2023-03-26T11:36:30.914Z,61.55
2023-03-26T11:41:35.168Z,61.24
2023-03-26T11:46:44.453Z,59.35
2023-03-26T11:51:49.737Z,58.33
2023-03-26T11:57:07.217Z,57.44
2023-03-26T12:02:14.088Z,57.24
2023-03-26T12:07:23.983Z,57.76
2023-03-26T12:12:38.805Z,59.11
2023-03-26T12:17:43.576Z,60.18
2023-03-26T12:22:48.210Z,63.60
2023-03-26T12:28:14.066Z,67.71
2023-03-26T12:33:28.016Z,69.13
2023-03-26T12:38:36.099Z,70.60
2023-03-26T12:44:50.182Z,71.28
2023-03-26T12:49:16.893Z,71.18
2023-03-26T12:55:12.235Z,70.33
2023-03-26T13:00:48.123Z,69.87
2023-03-26T13:06:10.967Z,69.08
2023-03-26T13:11:38.188Z,67.19
2023-03-26T13:16:47.098Z,66.27
2023-03-26T13:22:05.495Z,66.22
2023-03-26T13:27:44.737Z,64.34
2023-03-26T13:33:12.833Z,64.04
2023-03-26T13:38:24.824Z,64.38
2023-03-26T13:44:23.885Z,65.64
2023-03-26T13:49:52.424Z,66.15
2023-03-26T13:55:26.337Z,67.29
2023-03-26T14:00:58.823Z,69.04
2023-03-26T14:06:23.861Z,69.36
2023-03-26T14:12:32.475Z,69.35
2023-03-26T14:17:53.759Z,69.25
2023-03-26T14:23:28.638Z,67.30
2023-03-26T14:29:06.710Z,66.47
2023-03-26T14:34:58.369Z,66.26
2023-03-26T14:40:17.415Z,65.47
2023-03-26T14:45:23.886Z,65.53
2023-03-26T14:51:04.130Z,65.89
2023-03-26T14:56:34.054Z,66.89
2023-03-26T15:01:56.564Z,67.65
2023-03-26T15:07:24.092Z,67.30
2023-03-26T15:12:35.940Z,67.18
2023-03-26T15:18:28.793Z,65.88
2023-03-26T15:24:31.248Z,65.00
2023-03-26T15:30:17.439Z,63.42
2023-03-26T15:35:58.760Z,62.96
2023-03-26T15:41:40.022Z,64.21
2023-03-26T15:47:28.040Z,66.02
2023-03-26T15:53:05.351Z,67.30
2023-03-26T15:58:44.580Z,68.04
2023-03-26T16:04:01.919Z,67.86
2023-03-26T16:09:23.665Z,67.33
2023-03-26T16:14:36.909Z,67.53
2023-03-26T16:20:10.383Z,66.62
2023-03-26T16:25:33.579Z,66.79
2023-03-26T16:30:38.611Z,67.86
2023-03-26T16:36:34.807Z,68.80
2023-03-26T16:41:50.425Z,70.10
2023-03-26T16:47:35.083Z,71.24
2023-03-26T16:53:01.241Z,72.29
2023-03-26T16:58:30.003Z,73.16
2023-03-26T17:03:45.189Z,73.85
2023-03-26T17:09:00.919Z,74.50
2023-03-26T17:14:41.733Z,74.91
2023-03-26T17:20:33.882Z,74.81
2023-03-26T17:25:57.773Z,74.81
2023-03-26T17:31:05.079Z,75.22
2023-03-26T17:36:12.019Z,74.54
2023-03-26T17:41:54.881Z,74.03
2023-03-26T17:47:01.751Z,74.39
2023-03-26T17:52:48.439Z,74.85
2023-03-26T17:57:59.341Z,75.29
2023-03-26T18:03:26.095Z,75.49
2023-03-26T18:09:12.354Z,75.81
2023-03-26T18:14:33.723Z,76.09
2023-03-26T18:19:54.606Z,76.46
2023-03-26T18:25:02.493Z,76.79
2023-03-26T18:30:25.026Z,77.14
2023-03-26T18:35:52.325Z,77.43
2023-03-26T18:40:57.604Z,77.58
2023-03-26T18:46:04.406Z,77.78
2023-03-26T18:51:09.617Z,78.11
2023-03-26T18:56:32.021Z,78.39
2023-03-26T19:01:38.420Z,78.55
2023-03-26T19:06:44.742Z,78.72
2023-03-26T19:11:57.395Z,78.79
2023-03-26T19:17:05.015Z,78.88
2023-03-26T19:22:12.385Z,78.13
2023-03-26T19:27:17.407Z,77.69
2023-03-26T19:32:32.702Z,77.33
2023-03-26T19:37:51.719Z,76.59
2023-03-26T19:42:58.834Z,76.00
2023-03-26T19:48:15.489Z,75.76
2023-03-26T19:53:19.563Z,75.40
2023-03-26T19:58:24.192Z,75.11
2023-03-26T20:03:38.698Z,74.96
2023-03-26T20:08:43.174Z,74.96
2023-03-26T20:13:47.142Z,74.75
2023-03-26T20:18:58.024Z,74.57
2023-03-26T20:24:02.197Z,74.75
2023-03-26T20:29:06.220Z,74.59
2023-03-26T20:34:20.910Z,74.52
2023-03-26T20:39:25.890Z,74.31
2023-03-26T20:44:29.478Z,74.06
2023-03-26T20:49:33.047Z,73.77
2023-03-26T20:54:37.149Z,72.82
2023-03-26T20:59:40.994Z,72.34
2023-03-26T21:04:45.406Z,72.34
2023-03-26T21:09:49.577Z,72.31
2023-03-26T21:14:55.931Z,72.36
2023-03-26T21:20:09.329Z,72.39
2023-03-26T21:25:49.007Z,72.54
2023-03-26T21:30:53.533Z,72.48
2023-03-26T21:36:00.594Z,72.46
2023-03-26T21:41:05.201Z,72.63
2023-03-26T21:46:10.186Z,73.39
2023-03-26T21:51:19.722Z,73.82
2023-03-26T21:56:50.466Z,74.37
2023-03-26T22:02:21.946Z,75.00
2023-03-26T22:07:58.939Z,75.15
2023-03-26T22:13:02.592Z,74.94
2023-03-26T22:18:07.774Z,74.84
2023-03-26T22:23:12.367Z,74.72
2023-03-26T22:28:16.517Z,74.86
2023-03-26T22:33:20.433Z,75.14
2023-03-26T22:38:24.664Z,75.53
2023-03-26T22:43:29.050Z,75.90
2023-03-26T22:48:33.590Z,75.99
2023-03-26T22:53:37.515Z,76.28
2023-03-26T22:58:42.591Z,76.50
2023-03-26T23:03:47.108Z,76.71
2023-03-26T23:08:50.618Z,77.21
2023-03-26T23:13:54.213Z,77.83
2023-03-26T23:18:58.344Z,78.14
2023-03-26T23:24:02.214Z,78.26
2023-03-26T23:29:10.004Z,78.34
2023-03-26T23:34:13.715Z,78.29
2023-03-26T23:39:17.759Z,78.03
2023-03-26T23:44:21.490Z,78.00
2023-03-26T23:49:25.396Z,77.89
2023-03-26T23:54:30.458Z,77.94
2023-03-26T23:59:35.916Z,77.96
